sensor_id;sensor_type;location;lat;lon;timestamp;P1;durP1;ratioP1;P2;durP2;ratioP2
17818;SDS011;9034;50.284;19.310;2023-04-20T00:00:38;66.78;;;43.50;;
17818;SDS011;9034;50.284;19.310;2023-04-20T00:01:41;59.08;;;38.00;;
17818;SDS011;9034;50.284;19.310;2023-04-20T00:02:45;56.22;;;36.42;;
17818;SDS011;9034;50.284;19.310;2023-04-20T00:03:48;56.33;;;36.28;;
17818;SDS011;9034;50.284;19.310;2023-04-20T00:04:49;54.05;;;35.60;;
17818;SDS011;9034;50.284;19.310;2023-04-20T00:05:53;52.63;;;36.92;;
17818;SDS011;9034;50.284;19.310;2023-04-20T00:06:55;53.30;;;35.60;;
17818;SDS011;9034;50.284;19.310;2023-04-20T00:07:59;52.10;;;34.90;;
17818;SDS011;9034;50.284;19.310;2023-04-20T00:09:01;59.53;;;37.05;;
17818;SDS011;9034;50.284;19.310;2023-04-20T00:10:05;62.08;;;37.40;;
17818;SDS011;9034;50.284;19.310;2023-04-20T00:11:09;57.78;;;37.17;;
17818;SDS011;9034;50.284;19.310;2023-04-20T00:12:11;62.05;;;37.80;;
17818;SDS011;9034;50.284;19.310;2023-04-20T00:13:13;58.30;;;36.65;;
17818;SDS011;9034;50.284;19.310;2023-04-20T00:14:16;59.92;;;37.75;;
17818;SDS011;9034;50.284;19.310;2023-04-20T00:15:19;56.63;;;37.47;;
17818;SDS011;9034;50.284;19.310;2023-04-20T00:16:22;56.80;;;37.13;;
17818;SDS011;9034;50.284;19.310;2023-04-20T00:17:23;63.75;;;39.92;;
17818;SDS011;9034;50.284;19.310;2023-04-20T00:18:28;57.70;;;36.60;;
17818;SDS011;9034;50.284;19.310;2023-04-20T00:19:29;57.35;;;39.10;;
17818;SDS011;9034;50.284;19.310;2023-04-20T00:20:34;59.45;;;38.28;;
17818;SDS011;9034;50.284;19.310;2023-04-20T00:21:36;61.88;;;37.15;;
17818;SDS011;9034;50.284;19.310;2023-04-20T00:22:39;62.58;;;38.70;;
17818;SDS011;9034;50.284;19.310;2023-04-20T00:23:41;60.47;;;38.70;;
17818;SDS011;9034;50.284;19.310;2023-04-20T00:24:43;60.10;;;38.10;;
17818;SDS011;9034;50.284;19.310;2023-04-20T00:25:45;60.80;;;38.30;;
17818;SDS011;9034;50.284;19.310;2023-04-20T00:26:50;57.13;;;38.58;;
17818;SDS011;9034;50.284;19.310;2023-04-20T00:27:52;56.55;;;37.35;;
17818;SDS011;9034;50.284;19.310;2023-04-20T00:28:55;59.17;;;39.22;;
17818;SDS011;9034;50.284;19.310;2023-04-20T00:29:56;57.00;;;38.22;;
17818;SDS011;9034;50.284;19.310;2023-04-20T00:30:59;58.90;;;37.92;;
17818;SDS011;9034;50.284;19.310;2023-04-20T00:32:02;61.50;;;38.35;;
17818;SDS011;9034;50.284;19.310;2023-04-20T00:33:05;57.75;;;37.10;;
17818;SDS011;9034;50.284;19.310;2023-04-20T00:34:09;55.13;;;37.97;;
17818;SDS011;9034;50.284;19.310;2023-04-20T00:35:12;59.40;;;36.85;;
17818;SDS011;9034;50.284;19.310;2023-04-20T00:36:14;57.17;;;36.80;;
17818;SDS011;9034;50.284;19.310;2023-04-20T00:37:17;59.47;;;37.88;;
17818;SDS011;9034;50.284;19.310;2023-04-20T00:38:18;58.25;;;36.95;;
17818;SDS011;9034;50.284;19.310;2023-04-20T00:39:21;54.20;;;35.42;;
17818;SDS011;9034;50.284;19.310;2023-04-20T00:40:23;54.50;;;35.15;;
17818;SDS011;9034;50.284;19.310;2023-04-20T00:41:26;55.40;;;34.47;;
17818;SDS011;9034;50.284;19.310;2023-04-20T00:42:28;54.67;;;35.13;;
17818;SDS011;9034;50.284;19.310;2023-04-20T00:43:31;58.50;;;37.30;;
17818;SDS011;9034;50.284;19.310;2023-04-20T00:44:33;52.90;;;35.90;;
17818;SDS011;9034;50.284;19.310;2023-04-20T00:45:35;54.65;;;35.97;;
17818;SDS011;9034;50.284;19.310;2023-04-20T00:46:37;55.78;;;36.58;;
17818;SDS011;9034;50.284;19.310;2023-04-20T00:47:42;56.35;;;36.90;;
17818;SDS011;9034;50.284;19.310;2023-04-20T00:48:43;56.13;;;35.20;;
17818;SDS011;9034;50.284;19.310;2023-04-20T00:49:48;51.83;;;35.60;;
17818;SDS011;9034;50.284;19.310;2023-04-20T00:50:50;54.75;;;36.22;;
17818;SDS011;9034;50.284;19.310;2023-04-20T00:51:53;54.40;;;34.35;;
17818;SDS011;9034;50.284;19.310;2023-04-20T00:52:55;57.35;;;35.42;;
17818;SDS011;9034;50.284;19.310;2023-04-20T00:53:59;61.88;;;36.25;;
17818;SDS011;9034;50.284;19.310;2023-04-20T00:55:00;53.47;;;35.13;;
17818;SDS011;9034;50.284;19.310;2023-04-20T00:56:05;52.22;;;34.88;;
17818;SDS011;9034;50.284;19.310;2023-04-20T00:57:07;48.22;;;34.13;;
17818;SDS011;9034;50.284;19.310;2023-04-20T00:58:12;57.83;;;36.08;;
17818;SDS011;9034;50.284;19.310;2023-04-20T00:59:14;56.40;;;36.55;;
17818;SDS011;9034;50.284;19.310;2023-04-20T01:00:19;55.50;;;35.55;;
17818;SDS011;9034;50.284;19.310;2023-04-20T01:01:22;49.92;;;33.72;;
17818;SDS011;9034;50.284;19.310;2023-04-20T01:02:25;56.10;;;35.35;;
17818;SDS011;9034;50.284;19.310;2023-04-20T01:03:28;55.95;;;35.38;;
17818;SDS011;9034;50.284;19.310;2023-04-20T01:04:33;53.38;;;34.05;;
17818;SDS011;9034;50.284;19.310;2023-04-20T01:05:38;56.67;;;34.67;;
17818;SDS011;9034;50.284;19.310;2023-04-20T01:06:41;58.03;;;37.10;;
17818;SDS011;9034;50.284;19.310;2023-04-20T01:07:43;58.97;;;37.58;;
17818;SDS011;9034;50.284;19.310;2023-04-20T01:08:46;57.15;;;37.63;;
17818;SDS011;9034;50.284;19.310;2023-04-20T01:09:49;54.47;;;35.72;;
17818;SDS011;9034;50.284;19.310;2023-04-20T01:10:52;55.38;;;36.47;;
17818;SDS011;9034;50.284;19.310;2023-04-20T01:11:54;57.67;;;36.75;;
17818;SDS011;9034;50.284;19.310;2023-04-20T01:12:57;56.40;;;35.88;;
17818;SDS011;9034;50.284;19.310;2023-04-20T01:13:59;55.33;;;36.33;;
17818;SDS011;9034;50.284;19.310;2023-04-20T01:15:05;56.90;;;36.10;;
17818;SDS011;9034;50.284;19.310;2023-04-20T01:16:08;55.72;;;35.70;;
17818;SDS011;9034;50.284;19.310;2023-04-20T01:17:12;55.05;;;36.05;;
17818;SDS011;9034;50.284;19.310;2023-04-20T01:18:18;51.80;;;34.95;;
17818;SDS011;9034;50.284;19.310;2023-04-20T01:19:22;53.65;;;36.00;;
17818;SDS011;9034;50.284;19.310;2023-04-20T01:20:24;53.20;;;36.22;;
17818;SDS011;9034;50.284;19.310;2023-04-20T01:21:28;55.78;;;34.47;;
17818;SDS011;9034;50.284;19.310;2023-04-20T01:22:40;52.33;;;33.80;;
17818;SDS011;9034;50.284;19.310;2023-04-20T01:23:46;51.05;;;33.67;;
17818;SDS011;9034;50.284;19.310;2023-04-20T01:24:50;49.50;;;33.58;;
17818;SDS011;9034;50.284;19.310;2023-04-20T01:25:53;50.92;;;32.42;;
17818;SDS011;9034;50.284;19.310;2023-04-20T01:26:56;47.40;;;31.73;;
17818;SDS011;9034;50.284;19.310;2023-04-20T01:27:58;50.00;;;33.70;;
17818;SDS011;9034;50.284;19.310;2023-04-20T01:29:02;48.83;;;34.13;;
17818;SDS011;9034;50.284;19.310;2023-04-20T01:30:05;52.58;;;35.53;;
17818;SDS011;9034;50.284;19.310;2023-04-20T01:31:11;49.03;;;34.25;;
17818;SDS011;9034;50.284;19.310;2023-04-20T01:32:14;49.40;;;32.70;;
17818;SDS011;9034;50.284;19.310;2023-04-20T01:33:17;47.47;;;32.25;;
17818;SDS011;9034;50.284;19.310;2023-04-20T01:34:18;51.20;;;32.70;;
17818;SDS011;9034;50.284;19.310;2023-04-20T01:35:21;45.72;;;29.65;;
17818;SDS011;9034;50.284;19.310;2023-04-20T01:36:23;45.20;;;30.25;;
17818;SDS011;9034;50.284;19.310;2023-04-20T01:37:26;47.83;;;30.92;;
17818;SDS011;9034;50.284;19.310;2023-04-20T01:38:29;45.35;;;31.08;;
17818;SDS011;9034;50.284;19.310;2023-04-20T01:39:34;47.13;;;32.00;;
17818;SDS011;9034;50.284;19.310;2023-04-20T01:40:37;45.58;;;31.70;;
17818;SDS011;9034;50.284;19.310;2023-04-20T01:41:40;46.95;;;31.95;;
17818;SDS011;9034;50.284;19.310;2023-04-20T01:42:42;49.03;;;31.38;;
17818;SDS011;9034;50.284;19.310;2023-04-20T01:43:45;47.47;;;32.20;;
17818;SDS011;9034;50.284;19.310;2023-04-20T01:44:47;45.28;;;30.10;;
17818;SDS011;9034;50.284;19.310;2023-04-20T01:45:50;49.63;;;32.38;;
17818;SDS011;9034;50.284;19.310;2023-04-20T01:46:52;45.78;;;32.42;;
17818;SDS011;9034;50.284;19.310;2023-04-20T01:47:55;46.90;;;29.95;;
17818;SDS011;9034;50.284;19.310;2023-04-20T01:48:57;44.10;;;30.33;;
17818;SDS011;9034;50.284;19.310;2023-04-20T01:49:59;42.38;;;29.83;;
17818;SDS011;9034;50.284;19.310;2023-04-20T01:51:01;41.65;;;29.13;;
17818;SDS011;9034;50.284;19.310;2023-04-20T01:52:06;42.92;;;28.35;;
17818;SDS011;9034;50.284;19.310;2023-04-20T01:53:09;39.55;;;28.35;;
17818;SDS011;9034;50.284;19.310;2023-04-20T01:54:15;39.13;;;28.83;;
17818;SDS011;9034;50.284;19.310;2023-04-20T01:55:17;40.85;;;28.13;;
17818;SDS011;9034;50.284;19.310;2023-04-20T01:56:21;42.42;;;29.25;;
17818;SDS011;9034;50.284;19.310;2023-04-20T01:57:23;39.67;;;28.75;;
17818;SDS011;9034;50.284;19.310;2023-04-20T01:58:26;40.50;;;28.50;;
17818;SDS011;9034;50.284;19.310;2023-04-20T01:59:28;40.05;;;28.55;;
17818;SDS011;9034;50.284;19.310;2023-04-20T02:00:31;44.08;;;29.17;;
17818;SDS011;9034;50.284;19.310;2023-04-20T02:01:33;45.42;;;30.13;;
17818;SDS011;9034;50.284;19.310;2023-04-20T02:02:36;46.83;;;30.05;;
17818;SDS011;9034;50.284;19.310;2023-04-20T02:03:38;47.47;;;29.27;;
17818;SDS011;9034;50.284;19.310;2023-04-20T02:04:41;38.78;;;27.05;;
17818;SDS011;9034;50.284;19.310;2023-04-20T02:05:43;36.60;;;24.63;;
17818;SDS011;9034;50.284;19.310;2023-04-20T02:06:47;38.10;;;27.05;;
17818;SDS011;9034;50.284;19.310;2023-04-20T02:07:49;39.95;;;25.75;;
17818;SDS011;9034;50.284;19.310;2023-04-20T02:08:52;43.17;;;27.92;;
17818;SDS011;9034;50.284;19.310;2023-04-20T02:09:55;46.65;;;27.80;;
17818;SDS011;9034;50.284;19.310;2023-04-20T02:10:58;43.58;;;28.58;;
17818;SDS011;9034;50.284;19.310;2023-04-20T02:12:00;45.47;;;29.63;;
17818;SDS011;9034;50.284;19.310;2023-04-20T02:13:03;38.38;;;26.40;;
17818;SDS011;9034;50.284;19.310;2023-04-20T02:14:05;42.38;;;28.15;;
17818;SDS011;9034;50.284;19.310;2023-04-20T02:15:08;40.83;;;28.67;;
17818;SDS011;9034;50.284;19.310;2023-04-20T02:16:11;38.70;;;26.42;;
17818;SDS011;9034;50.284;19.310;2023-04-20T02:17:14;42.03;;;27.70;;
17818;SDS011;9034;50.284;19.310;2023-04-20T02:18:16;40.58;;;26.48;;
17818;SDS011;9034;50.284;19.310;2023-04-20T02:19:19;46.20;;;29.17;;
17818;SDS011;9034;50.284;19.310;2023-04-20T02:20:21;38.63;;;25.58;;
17818;SDS011;9034;50.284;19.310;2023-04-20T02:21:24;42.67;;;27.35;;
17818;SDS011;9034;50.284;19.310;2023-04-20T02:22:27;46.20;;;32.15;;
17818;SDS011;9034;50.284;19.310;2023-04-20T02:23:29;46.97;;;29.98;;
17818;SDS011;9034;50.284;19.310;2023-04-20T02:24:32;45.03;;;28.38;;
17818;SDS011;9034;50.284;19.310;2023-04-20T02:25:38;45.05;;;29.48;;
17818;SDS011;9034;50.284;19.310;2023-04-20T02:26:40;43.40;;;29.27;;
17818;SDS011;9034;50.284;19.310;2023-04-20T02:27:43;42.45;;;28.23;;
17818;SDS011;9034;50.284;19.310;2023-04-20T02:28:46;43.10;;;28.17;;
17818;SDS011;9034;50.284;19.310;2023-04-20T02:29:47;42.30;;;28.00;;
17818;SDS011;9034;50.284;19.310;2023-04-20T02:30:50;42.03;;;29.10;;
17818;SDS011;9034;50.284;19.310;2023-04-20T02:31:52;44.85;;;28.33;;
17818;SDS011;9034;50.284;19.310;2023-04-20T02:32:55;46.85;;;28.17;;
17818;SDS011;9034;50.284;19.310;2023-04-20T02:33:57;40.90;;;27.33;;
17818;SDS011;9034;50.284;19.310;2023-04-20T02:35:01;44.90;;;27.75;;
17818;SDS011;9034;50.284;19.310;2023-04-20T02:36:04;42.67;;;28.23;;
17818;SDS011;9034;50.284;19.310;2023-04-20T02:37:07;40.65;;;26.27;;
17818;SDS011;9034;50.284;19.310;2023-04-20T02:38:09;40.67;;;28.17;;
17818;SDS011;9034;50.284;19.310;2023-04-20T02:39:12;39.65;;;27.25;;
17818;SDS011;9034;50.284;19.310;2023-04-20T02:40:14;38.08;;;26.70;;
17818;SDS011;9034;50.284;19.310;2023-04-20T02:41:18;40.47;;;27.08;;
17818;SDS011;9034;50.284;19.310;2023-04-20T02:42:21;38.90;;;26.17;;
17818;SDS011;9034;50.284;19.310;2023-04-20T02:43:24;41.90;;;27.83;;
17818;SDS011;9034;50.284;19.310;2023-04-20T02:44:26;39.53;;;27.02;;
17818;SDS011;9034;50.284;19.310;2023-04-20T02:45:29;39.72;;;24.65;;
17818;SDS011;9034;50.284;19.310;2023-04-20T02:46:32;41.22;;;27.70;;
17818;SDS011;9034;50.284;19.310;2023-04-20T02:47:35;42.78;;;27.27;;
17818;SDS011;9034;50.284;19.310;2023-04-20T02:48:37;38.63;;;27.35;;
17818;SDS011;9034;50.284;19.310;2023-04-20T02:49:40;38.28;;;26.05;;
17818;SDS011;9034;50.284;19.310;2023-04-20T02:50:41;42.40;;;26.42;;
17818;SDS011;9034;50.284;19.310;2023-04-20T02:51:50;42.67;;;26.10;;
17818;SDS011;9034;50.284;19.310;2023-04-20T02:52:52;38.13;;;26.55;;
17818;SDS011;9034;50.284;19.310;2023-04-20T02:53:55;43.22;;;27.92;;
17818;SDS011;9034;50.284;19.310;2023-04-20T02:55:02;45.13;;;27.25;;
17818;SDS011;9034;50.284;19.310;2023-04-20T02:56:06;44.28;;;27.98;;
17818;SDS011;9034;50.284;19.310;2023-04-20T02:57:35;43.92;;;27.73;;
17818;SDS011;9034;50.284;19.310;2023-04-20T02:58:38;46.97;;;28.70;;
17818;SDS011;9034;50.284;19.310;2023-04-20T02:59:52;43.65;;;30.00;;
17818;SDS011;9034;50.284;19.310;2023-04-20T03:01:00;42.33;;;29.58;;
17818;SDS011;9034;50.284;19.310;2023-04-20T03:02:03;47.25;;;29.17;;
17818;SDS011;9034;50.284;19.310;2023-04-20T03:03:08;44.55;;;29.13;;
17818;SDS011;9034;50.284;19.310;2023-04-20T03:04:10;44.60;;;28.30;;
17818;SDS011;9034;50.284;19.310;2023-04-20T03:05:21;41.40;;;28.85;;
17818;SDS011;9034;50.284;19.310;2023-04-20T03:06:23;46.88;;;28.35;;
17818;SDS011;9034;50.284;19.310;2023-04-20T03:07:29;42.60;;;27.52;;
17818;SDS011;9034;50.284;19.310;2023-04-20T03:08:31;44.20;;;29.85;;
17818;SDS011;9034;50.284;19.310;2023-04-20T03:09:45;46.75;;;28.98;;
17818;SDS011;9034;50.284;19.310;2023-04-20T03:10:56;40.78;;;26.92;;
17818;SDS011;9034;50.284;19.310;2023-04-20T03:11:57;46.72;;;29.23;;
17818;SDS011;9034;50.284;19.310;2023-04-20T03:13:22;43.55;;;28.08;;
17818;SDS011;9034;50.284;19.310;2023-04-20T03:14:32;42.25;;;28.45;;
17818;SDS011;9034;50.284;19.310;2023-04-20T03:15:34;44.67;;;27.85;;
17818;SDS011;9034;50.284;19.310;2023-04-20T03:16:45;43.80;;;27.40;;
17818;SDS011;9034;50.284;19.310;2023-04-20T03:17:48;44.17;;;30.23;;
17818;SDS011;9034;50.284;19.310;2023-04-20T03:18:52;40.83;;;27.00;;
17818;SDS011;9034;50.284;19.310;2023-04-20T03:19:55;43.05;;;27.98;;
17818;SDS011;9034;50.284;19.310;2023-04-20T03:20:58;43.13;;;27.83;;
17818;SDS011;9034;50.284;19.310;2023-04-20T03:22:01;44.13;;;29.70;;
17818;SDS011;9034;50.284;19.310;2023-04-20T03:23:05;47.33;;;31.13;;
17818;SDS011;9034;50.284;19.310;2023-04-20T03:24:09;48.47;;;30.38;;
17818;SDS011;9034;50.284;19.310;2023-04-20T03:25:13;48.03;;;30.60;;
17818;SDS011;9034;50.284;19.310;2023-04-20T03:26:26;46.00;;;29.10;;
17818;SDS011;9034;50.284;19.310;2023-04-20T03:27:50;49.17;;;29.70;;
17818;SDS011;9034;50.284;19.310;2023-04-20T03:28:55;47.10;;;29.70;;
17818;SDS011;9034;50.284;19.310;2023-04-20T03:29:59;47.55;;;29.02;;
17818;SDS011;9034;50.284;19.310;2023-04-20T03:31:02;45.38;;;29.50;;
17818;SDS011;9034;50.284;19.310;2023-04-20T03:32:06;48.83;;;29.63;;
17818;SDS011;9034;50.284;19.310;2023-04-20T03:33:09;51.85;;;30.92;;
17818;SDS011;9034;50.284;19.310;2023-04-20T03:34:12;49.00;;;29.60;;
17818;SDS011;9034;50.284;19.310;2023-04-20T03:35:15;40.22;;;27.42;;
17818;SDS011;9034;50.284;19.310;2023-04-20T03:36:18;44.38;;;28.52;;
17818;SDS011;9034;50.284;19.310;2023-04-20T03:37:21;39.47;;;27.10;;
17818;SDS011;9034;50.284;19.310;2023-04-20T03:38:26;46.13;;;27.33;;
17818;SDS011;9034;50.284;19.310;2023-04-20T03:39:28;39.83;;;26.60;;
17818;SDS011;9034;50.284;19.310;2023-04-20T03:40:30;42.90;;;27.17;;
17818;SDS011;9034;50.284;19.310;2023-04-20T03:41:33;43.83;;;27.83;;
17818;SDS011;9034;50.284;19.310;2023-04-20T03:42:35;46.08;;;27.58;;
17818;SDS011;9034;50.284;19.310;2023-04-20T03:43:39;45.50;;;28.63;;
17818;SDS011;9034;50.284;19.310;2023-04-20T03:44:44;45.25;;;27.95;;
17818;SDS011;9034;50.284;19.310;2023-04-20T03:45:47;46.83;;;29.52;;
17818;SDS011;9034;50.284;19.310;2023-04-20T03:46:51;51.97;;;30.85;;
17818;SDS011;9034;50.284;19.310;2023-04-20T03:47:54;46.40;;;29.35;;
17818;SDS011;9034;50.284;19.310;2023-04-20T03:48:56;47.60;;;28.92;;
17818;SDS011;9034;50.284;19.310;2023-04-20T03:49:59;44.33;;;28.40;;
17818;SDS011;9034;50.284;19.310;2023-04-20T03:51:00;47.95;;;29.92;;
17818;SDS011;9034;50.284;19.310;2023-04-20T03:52:04;39.58;;;27.92;;
17818;SDS011;9034;50.284;19.310;2023-04-20T03:53:07;45.08;;;27.98;;
17818;SDS011;9034;50.284;19.310;2023-04-20T03:54:11;46.33;;;28.60;;
17818;SDS011;9034;50.284;19.310;2023-04-20T03:55:13;46.65;;;29.52;;
17818;SDS011;9034;50.284;19.310;2023-04-20T03:56:21;49.25;;;29.40;;
17818;SDS011;9034;50.284;19.310;2023-04-20T03:57:25;46.50;;;28.98;;
17818;SDS011;9034;50.284;19.310;2023-04-20T03:58:27;46.45;;;29.25;;
17818;SDS011;9034;50.284;19.310;2023-04-20T03:59:45;47.92;;;28.80;;
17818;SDS011;9034;50.284;19.310;2023-04-20T04:00:51;51.40;;;30.80;;
17818;SDS011;9034;50.284;19.310;2023-04-20T04:01:54;54.22;;;32.10;;
17818;SDS011;9034;50.284;19.310;2023-04-20T04:02:57;53.47;;;33.53;;
17818;SDS011;9034;50.284;19.310;2023-04-20T04:04:01;50.17;;;32.83;;
17818;SDS011;9034;50.284;19.310;2023-04-20T04:05:06;64.28;;;37.50;;
17818;SDS011;9034;50.284;19.310;2023-04-20T04:06:08;53.55;;;34.97;;
17818;SDS011;9034;50.284;19.310;2023-04-20T04:07:12;64.63;;;39.15;;
17818;SDS011;9034;50.284;19.310;2023-04-20T04:08:16;70.93;;;41.28;;
17818;SDS011;9034;50.284;19.310;2023-04-20T04:09:19;70.47;;;42.20;;
17818;SDS011;9034;50.284;19.310;2023-04-20T04:10:21;60.88;;;37.00;;
17818;SDS011;9034;50.284;19.310;2023-04-20T04:11:24;56.25;;;34.72;;
17818;SDS011;9034;50.284;19.310;2023-04-20T04:12:26;55.50;;;33.22;;
17818;SDS011;9034;50.284;19.310;2023-04-20T04:13:30;55.70;;;32.88;;
17818;SDS011;9034;50.284;19.310;2023-04-20T04:14:35;49.95;;;32.50;;
17818;SDS011;9034;50.284;19.310;2023-04-20T04:15:39;56.78;;;33.30;;
17818;SDS011;9034;50.284;19.310;2023-04-20T04:16:46;52.42;;;31.33;;
17818;SDS011;9034;50.284;19.310;2023-04-20T04:17:49;51.58;;;30.52;;
17818;SDS011;9034;50.284;19.310;2023-04-20T04:18:51;49.55;;;30.27;;
17818;SDS011;9034;50.284;19.310;2023-04-20T04:19:54;46.38;;;29.38;;
17818;SDS011;9034;50.284;19.310;2023-04-20T04:20:56;53.25;;;31.83;;
17818;SDS011;9034;50.284;19.310;2023-04-20T04:21:59;60.95;;;34.75;;
17818;SDS011;9034;50.284;19.310;2023-04-20T04:23:04;61.28;;;37.05;;
17818;SDS011;9034;50.284;19.310;2023-04-20T04:24:30;59.50;;;35.17;;
17818;SDS011;9034;50.284;19.310;2023-04-20T04:25:40;52.25;;;32.53;;
17818;SDS011;9034;50.284;19.310;2023-04-20T04:26:45;47.60;;;30.95;;
17818;SDS011;9034;50.284;19.310;2023-04-20T04:27:48;48.33;;;31.90;;
17818;SDS011;9034;50.284;19.310;2023-04-20T04:28:51;51.17;;;31.38;;
17818;SDS011;9034;50.284;19.310;2023-04-20T04:29:56;53.03;;;32.97;;
17818;SDS011;9034;50.284;19.310;2023-04-20T04:30:59;52.03;;;32.63;;
17818;SDS011;9034;50.284;19.310;2023-04-20T04:32:07;57.33;;;34.22;;
17818;SDS011;9034;50.284;19.310;2023-04-20T04:33:11;54.33;;;34.33;;
17818;SDS011;9034;50.284;19.310;2023-04-20T04:34:18;56.65;;;33.17;;
17818;SDS011;9034;50.284;19.310;2023-04-20T04:35:24;55.08;;;33.75;;
17818;SDS011;9034;50.284;19.310;2023-04-20T04:36:31;52.45;;;33.72;;
17818;SDS011;9034;50.284;19.310;2023-04-20T04:37:34;53.42;;;33.03;;
17818;SDS011;9034;50.284;19.310;2023-04-20T04:38:39;61.38;;;34.28;;
17818;SDS011;9034;50.284;19.310;2023-04-20T04:39:42;57.15;;;33.13;;
17818;SDS011;9034;50.284;19.310;2023-04-20T04:40:54;49.13;;;30.35;;
17818;SDS011;9034;50.284;19.310;2023-04-20T04:41:57;48.55;;;31.20;;
17818;SDS011;9034;50.284;19.310;2023-04-20T04:43:07;49.40;;;30.17;;
17818;SDS011;9034;50.284;19.310;2023-04-20T04:44:12;44.67;;;29.05;;
17818;SDS011;9034;50.284;19.310;2023-04-20T04:45:16;45.17;;;27.67;;
17818;SDS011;9034;50.284;19.310;2023-04-20T04:46:20;44.05;;;28.48;;
17818;SDS011;9034;50.284;19.310;2023-04-20T04:47:25;45.55;;;27.48;;
17818;SDS011;9034;50.284;19.310;2023-04-20T04:48:30;41.80;;;27.58;;
17818;SDS011;9034;50.284;19.310;2023-04-20T04:49:33;46.42;;;27.33;;
17818;SDS011;9034;50.284;19.310;2023-04-20T04:50:36;39.75;;;25.83;;
17818;SDS011;9034;50.284;19.310;2023-04-20T04:51:39;39.30;;;25.95;;
17818;SDS011;9034;50.284;19.310;2023-04-20T04:52:41;39.80;;;25.02;;
17818;SDS011;9034;50.284;19.310;2023-04-20T04:53:44;44.88;;;26.60;;
17818;SDS011;9034;50.284;19.310;2023-04-20T04:54:48;39.75;;;26.30;;
17818;SDS011;9034;50.284;19.310;2023-04-20T04:55:51;49.05;;;29.40;;
17818;SDS011;9034;50.284;19.310;2023-04-20T04:56:53;45.45;;;27.75;;
17818;SDS011;9034;50.284;19.310;2023-04-20T04:57:56;45.40;;;27.45;;
17818;SDS011;9034;50.284;19.310;2023-04-20T04:58:58;45.10;;;28.27;;
17818;SDS011;9034;50.284;19.310;2023-04-20T05:00:00;49.97;;;29.30;;
17818;SDS011;9034;50.284;19.310;2023-04-20T05:01:03;46.58;;;28.70;;
17818;SDS011;9034;50.284;19.310;2023-04-20T05:02:08;50.45;;;29.65;;
17818;SDS011;9034;50.284;19.310;2023-04-20T05:03:10;47.28;;;28.63;;
17818;SDS011;9034;50.284;19.310;2023-04-20T05:04:13;49.05;;;29.27;;
17818;SDS011;9034;50.284;19.310;2023-04-20T05:05:15;46.67;;;29.10;;
17818;SDS011;9034;50.284;19.310;2023-04-20T05:06:18;47.17;;;29.00;;
17818;SDS011;9034;50.284;19.310;2023-04-20T05:07:21;50.45;;;28.92;;
17818;SDS011;9034;50.284;19.310;2023-04-20T05:08:25;48.78;;;28.38;;
17818;SDS011;9034;50.284;19.310;2023-04-20T05:09:27;51.80;;;28.17;;
17818;SDS011;9034;50.284;19.310;2023-04-20T05:10:33;45.58;;;29.00;;
17818;SDS011;9034;50.284;19.310;2023-04-20T05:11:36;49.40;;;27.88;;
17818;SDS011;9034;50.284;19.310;2023-04-20T05:12:38;49.70;;;29.05;;
17818;SDS011;9034;50.284;19.310;2023-04-20T05:13:41;46.58;;;28.35;;
17818;SDS011;9034;50.284;19.310;2023-04-20T05:14:43;46.03;;;27.13;;
17818;SDS011;9034;50.284;19.310;2023-04-20T05:15:46;47.70;;;27.98;;
17818;SDS011;9034;50.284;19.310;2023-04-20T05:16:48;50.53;;;28.48;;
17818;SDS011;9034;50.284;19.310;2023-04-20T05:17:53;60.30;;;35.42;;
17818;SDS011;9034;50.284;19.310;2023-04-20T05:18:56;53.75;;;30.90;;
17818;SDS011;9034;50.284;19.310;2023-04-20T05:19:58;49.85;;;29.33;;
17818;SDS011;9034;50.284;19.310;2023-04-20T05:21:01;50.70;;;29.77;;
17818;SDS011;9034;50.284;19.310;2023-04-20T05:22:03;54.30;;;30.58;;
17818;SDS011;9034;50.284;19.310;2023-04-20T05:23:06;53.25;;;30.63;;
17818;SDS011;9034;50.284;19.310;2023-04-20T05:24:08;56.45;;;30.60;;
17818;SDS011;9034;50.284;19.310;2023-04-20T05:25:11;51.22;;;29.95;;
17818;SDS011;9034;50.284;19.310;2023-04-20T05:26:15;47.63;;;28.60;;
17818;SDS011;9034;50.284;19.310;2023-04-20T05:27:18;51.95;;;30.48;;
17818;SDS011;9034;50.284;19.310;2023-04-20T05:28:20;61.40;;;32.05;;
17818;SDS011;9034;50.284;19.310;2023-04-20T05:29:23;56.58;;;31.83;;
17818;SDS011;9034;50.284;19.310;2023-04-20T05:30:25;51.17;;;30.00;;
17818;SDS011;9034;50.284;19.310;2023-04-20T05:31:28;51.38;;;29.27;;
17818;SDS011;9034;50.284;19.310;2023-04-20T05:32:31;51.17;;;30.10;;
17818;SDS011;9034;50.284;19.310;2023-04-20T05:33:35;54.67;;;29.70;;
17818;SDS011;9034;50.284;19.310;2023-04-20T05:34:37;49.35;;;30.88;;
17818;SDS011;9034;50.284;19.310;2023-04-20T05:35:40;58.20;;;31.80;;
17818;SDS011;9034;50.284;19.310;2023-04-20T05:36:42;60.20;;;34.33;;
17818;SDS011;9034;50.284;19.310;2023-04-20T05:37:44;60.03;;;32.88;;
17818;SDS011;9034;50.284;19.310;2023-04-20T05:38:48;59.85;;;34.78;;
17818;SDS011;9034;50.284;19.310;2023-04-20T05:39:51;66.97;;;36.53;;
17818;SDS011;9034;50.284;19.310;2023-04-20T05:40:53;59.65;;;35.95;;
17818;SDS011;9034;50.284;19.310;2023-04-20T05:41:57;57.92;;;33.17;;
17818;SDS011;9034;50.284;19.310;2023-04-20T05:43:00;54.88;;;33.45;;
17818;SDS011;9034;50.284;19.310;2023-04-20T05:44:03;59.33;;;35.38;;
17818;SDS011;9034;50.284;19.310;2023-04-20T05:45:06;55.33;;;33.53;;
17818;SDS011;9034;50.284;19.310;2023-04-20T05:46:09;63.72;;;35.78;;
17818;SDS011;9034;50.284;19.310;2023-04-20T05:47:11;69.15;;;38.92;;
17818;SDS011;9034;50.284;19.310;2023-04-20T05:48:14;66.05;;;39.05;;
17818;SDS011;9034;50.284;19.310;2023-04-20T05:49:17;68.55;;;39.08;;
17818;SDS011;9034;50.284;19.310;2023-04-20T05:50:20;60.63;;;35.35;;
17818;SDS011;9034;50.284;19.310;2023-04-20T05:51:23;61.88;;;37.13;;
17818;SDS011;9034;50.284;19.310;2023-04-20T05:52:29;61.17;;;35.60;;
17818;SDS011;9034;50.284;19.310;2023-04-20T05:53:31;61.67;;;35.75;;
17818;SDS011;9034;50.284;19.310;2023-04-20T05:54:34;55.90;;;33.88;;
17818;SDS011;9034;50.284;19.310;2023-04-20T05:55:36;61.08;;;34.47;;
17818;SDS011;9034;50.284;19.310;2023-04-20T05:56:38;60.00;;;35.65;;
17818;SDS011;9034;50.284;19.310;2023-04-20T05:57:40;57.35;;;34.15;;
17818;SDS011;9034;50.284;19.310;2023-04-20T05:58:43;53.20;;;33.50;;
17818;SDS011;9034;50.284;19.310;2023-04-20T05:59:45;57.55;;;34.80;;
17818;SDS011;9034;50.284;19.310;2023-04-20T06:00:49;52.35;;;29.65;;
17818;SDS011;9034;50.284;19.310;2023-04-20T06:01:51;48.28;;;30.58;;
17818;SDS011;9034;50.284;19.310;2023-04-20T06:02:53;48.03;;;30.58;;
17818;SDS011;9034;50.284;19.310;2023-04-20T06:03:56;48.15;;;30.13;;
17818;SDS011;9034;50.284;19.310;2023-04-20T06:05:00;49.95;;;29.58;;
17818;SDS011;9034;50.284;19.310;2023-04-20T06:06:03;49.90;;;29.23;;
17818;SDS011;9034;50.284;19.310;2023-04-20T06:07:06;45.95;;;28.55;;
17818;SDS011;9034;50.284;19.310;2023-04-20T06:08:08;46.47;;;28.77;;
17818;SDS011;9034;50.284;19.310;2023-04-20T06:09:11;51.83;;;32.22;;
17818;SDS011;9034;50.284;19.310;2023-04-20T06:10:14;54.08;;;31.70;;
17818;SDS011;9034;50.284;19.310;2023-04-20T06:11:16;48.17;;;29.98;;
17818;SDS011;9034;50.284;19.310;2023-04-20T06:12:18;41.92;;;28.98;;